sensor_id;sensor_type;location;lat;lon;timestamp;pressure;altitude;pressure_sealevel;temperature
68446;BMP280;35789;48.414;12.768;2023-04-03T00:00:00;97580.0;;;
68446;BMP280;35789;48.414;12.768;2023-04-03T00:05:00;97580.0;;;
68446;BMP280;35789;48.414;12.768;2023-04-03T00:10:00;97580.0;;;
68446;BMP280;35789;48.414;12.768;2023-04-03T00:15:00;97590.0;;;
68446;BMP280;35789;48.414;12.768;2023-04-03T00:20:00;97580.0;;;
68446;BMP280;35789;48.414;12.768;2023-04-03T00:25:00;97590.0;;;
68446;BMP280;35789;48.414;12.768;2023-04-03T00:30:00;97590.0;;;
68446;BMP280;35789;48.414;12.768;2023-04-03T00:35:00;97590.0;;;
68446;BMP280;35789;48.414;12.768;2023-04-03T00:40:01;97600.0;;;
68446;BMP280;35789;48.414;12.768;2023-04-03T00:45:30;97600.0;;;
68446;BMP280;35789;48.414;12.768;2023-04-03T00:50:01;97600.0;;;
68446;BMP280;35789;48.414;12.768;2023-04-03T00:55:05;97600.0;;;
68446;BMP280;35789;48.414;12.768;2023-04-03T01:00:05;97600.0;;;
68446;BMP280;35789;48.414;12.768;2023-04-03T01:05:00;97600.0;;;
68446;BMP280;35789;48.414;12.768;2023-04-03T01:10:08;97590.0;;;
68446;BMP280;35789;48.414;12.768;2023-04-03T01:15:04;97590.0;;;
68446;BMP280;35789;48.414;12.768;2023-04-03T01:25:01;97600.0;;;
68446;BMP280;35789;48.414;12.768;2023-04-03T01:30:01;97600.0;;;
68446;BMP280;35789;48.414;12.768;2023-04-03T01:35:00;97610.0;;;
68446;BMP280;35789;48.414;12.768;2023-04-03T01:40:01;97610.0;;;
68446;BMP280;35789;48.414;12.768;2023-04-03T01:45:00;97610.0;;;
68446;BMP280;35789;48.414;12.768;2023-04-03T01:50:00;97610.0;;;
68446;BMP280;35789;48.414;12.768;2023-04-03T01:55:00;97610.0;;;
68446;BMP280;35789;48.414;12.768;2023-04-03T02:00:00;97610.0;;;
68446;BMP280;35789;48.414;12.768;2023-04-03T02:05:00;97620.0;;;
68446;BMP280;35789;48.414;12.768;2023-04-03T02:10:00;97610.0;;;
68446;BMP280;35789;48.414;12.768;2023-04-03T02:15:00;97610.0;;;
68446;BMP280;35789;48.414;12.768;2023-04-03T02:20:01;97610.0;;;
68446;BMP280;35789;48.414;12.768;2023-04-03T02:25:01;97610.0;;;
68446;BMP280;35789;48.414;12.768;2023-04-03T02:30:00;97610.0;;;
68446;BMP280;35789;48.414;12.768;2023-04-03T02:35:00;97610.0;;;
68446;BMP280;35789;48.414;12.768;2023-04-03T02:40:01;97610.0;;;
68446;BMP280;35789;48.414;12.768;2023-04-03T02:45:00;97610.0;;;
68446;BMP280;35789;48.414;12.768;2023-04-03T02:50:00;97610.0;;;
68446;BMP280;35789;48.414;12.768;2023-04-03T02:55:00;97610.0;;;
68446;BMP280;35789;48.414;12.768;2023-04-03T03:00:00;97610.0;;;
68446;BMP280;35789;48.414;12.768;2023-04-03T03:05:00;97610.0;;;
68446;BMP280;35789;48.414;12.768;2023-04-03T03:10:00;97610.0;;;
68446;BMP280;35789;48.414;12.768;2023-04-03T03:15:07;97610.0;;;
68446;BMP280;35789;48.414;12.768;2023-04-03T03:20:00;97610.0;;;
68446;BMP280;35789;48.414;12.768;2023-04-03T03:25:01;97600.0;;;
68446;BMP280;35789;48.414;12.768;2023-04-03T03:30:00;97600.0;;;
68446;BMP280;35789;48.414;12.768;2023-04-03T03:35:00;97590.0;;;
68446;BMP280;35789;48.414;12.768;2023-04-03T03:40:00;97600.0;;;
68446;BMP280;35789;48.414;12.768;2023-04-03T03:45:00;97600.0;;;
68446;BMP280;35789;48.414;12.768;2023-04-03T03:50:00;97600.0;;;
68446;BMP280;35789;48.414;12.768;2023-04-03T03:55:00;97600.0;;;
68446;BMP280;35789;48.414;12.768;2023-04-03T04:00:00;97600.0;;;
68446;BMP280;35789;48.414;12.768;2023-04-03T04:05:01;97600.0;;;
68446;BMP280;35789;48.414;12.768;2023-04-03T04:10:01;97600.0;;;
68446;BMP280;35789;48.414;12.768;2023-04-03T04:15:01;97600.0;;;
68446;BMP280;35789;48.414;12.768;2023-04-03T04:20:00;97600.0;;;
68446;BMP280;35789;48.414;12.768;2023-04-03T04:25:00;97600.0;;;
68446;BMP280;35789;48.414;12.768;2023-04-03T04:30:01;97610.0;;;
68446;BMP280;35789;48.414;12.768;2023-04-03T04:35:00;97600.0;;;
68446;BMP280;35789;48.414;12.768;2023-04-03T04:40:00;97610.0;;;
68446;BMP280;35789;48.414;12.768;2023-04-03T04:45:01;97620.0;;;
68446;BMP280;35789;48.414;12.768;2023-04-03T04:50:00;97620.0;;;
68446;BMP280;35789;48.414;12.768;2023-04-03T04:55:01;97620.0;;;
68446;BMP280;35789;48.414;12.768;2023-04-03T05:00:00;97630.0;;;
68446;BMP280;35789;48.414;12.768;2023-04-03T05:05:00;97630.0;;;
68446;BMP280;35789;48.414;12.768;2023-04-03T05:10:00;97620.0;;;
68446;BMP280;35789;48.414;12.768;2023-04-03T05:15:00;97630.0;;;
68446;BMP280;35789;48.414;12.768;2023-04-03T05:20:01;97630.0;;;
68446;BMP280;35789;48.414;12.768;2023-04-03T05:25:00;97640.0;;;
68446;BMP280;35789;48.414;12.768;2023-04-03T05:30:00;97650.0;;;
68446;BMP280;35789;48.414;12.768;2023-04-03T05:35:01;97650.0;;;
68446;BMP280;35789;48.414;12.768;2023-04-03T05:40:01;97650.0;;;
68446;BMP280;35789;48.414;12.768;2023-04-03T05:45:00;97650.0;;;
68446;BMP280;35789;48.414;12.768;2023-04-03T05:50:00;97650.0;;;
68446;BMP280;35789;48.414;12.768;2023-04-03T05:55:00;97650.0;;;
68446;BMP280;35789;48.414;12.768;2023-04-03T06:00:01;97650.0;;;
68446;BMP280;35789;48.414;12.768;2023-04-03T06:05:00;97650.0;;;
68446;BMP280;35789;48.414;12.768;2023-04-03T06:10:02;97650.0;;;
68446;BMP280;35789;48.414;12.768;2023-04-03T06:15:00;97660.0;;;
68446;BMP280;35789;48.414;12.768;2023-04-03T06:20:00;97660.0;;;
68446;BMP280;35789;48.414;12.768;2023-04-03T06:25:00;97660.0;;;
68446;BMP280;35789;48.414;12.768;2023-04-03T06:30:00;97660.0;;;
68446;BMP280;35789;48.414;12.768;2023-04-03T06:35:00;97660.0;;;
68446;BMP280;35789;48.414;12.768;2023-04-03T06:40:00;97660.0;;;
68446;BMP280;35789;48.414;12.768;2023-04-03T06:45:00;97660.0;;;
68446;BMP280;35789;48.414;12.768;2023-04-03T06:50:00;97670.0;;;
68446;BMP280;35789;48.414;12.768;2023-04-03T06:55:00;97670.0;;;
68446;BMP280;35789;48.414;12.768;2023-04-03T07:00:01;97670.0;;;
68446;BMP280;35789;48.414;12.768;2023-04-03T07:05:01;97680.0;;;
68446;BMP280;35789;48.414;12.768;2023-04-03T07:10:01;97680.0;;;
68446;BMP280;35789;48.414;12.768;2023-04-03T07:15:00;97690.0;;;
68446;BMP280;35789;48.414;12.768;2023-04-03T07:20:00;97700.0;;;
68446;BMP280;35789;48.414;12.768;2023-04-03T07:25:00;97700.0;;;
68446;BMP280;35789;48.414;12.768;2023-04-03T07:30:00;97700.0;;;
68446;BMP280;35789;48.414;12.768;2023-04-03T07:35:00;97700.0;;;
68446;BMP280;35789;48.414;12.768;2023-04-03T07:40:00;97700.0;;;
68446;BMP280;35789;48.414;12.768;2023-04-03T07:45:00;97710.0;;;
68446;BMP280;35789;48.414;12.768;2023-04-03T07:50:01;97710.0;;;
68446;BMP280;35789;48.414;12.768;2023-04-03T07:55:00;97710.0;;;
68446;BMP280;35789;48.414;12.768;2023-04-03T08:00:01;97720.0;;;
68446;BMP280;35789;48.414;12.768;2023-04-03T08:05:01;97710.0;;;
68446;BMP280;35789;48.414;12.768;2023-04-03T08:10:00;97710.0;;;
68446;BMP280;35789;48.414;12.768;2023-04-03T08:15:00;97710.0;;;
68446;BMP280;35789;48.414;12.768;2023-04-03T08:20:01;97710.0;;;
68446;BMP280;35789;48.414;12.768;2023-04-03T08:25:00;97710.0;;;
68446;BMP280;35789;48.414;12.768;2023-04-03T08:30:01;97710.0;;;
68446;BMP280;35789;48.414;12.768;2023-04-03T08:35:00;97710.0;;;
68446;BMP280;35789;48.414;12.768;2023-04-03T08:40:00;97710.0;;;
68446;BMP280;35789;48.414;12.768;2023-04-03T08:45:09;97720.0;;;
68446;BMP280;35789;48.414;12.768;2023-04-03T08:50:04;97720.0;;;
68446;BMP280;35789;48.414;12.768;2023-04-03T08:55:05;97740.0;;;
68446;BMP280;35789;48.414;12.768;2023-04-03T09:00:17;97740.0;;;
68446;BMP280;35789;48.414;12.768;2023-04-03T09:05:06;97740.0;;;
68446;BMP280;35789;48.414;12.768;2023-04-03T09:10:01;97740.0;;;
68446;BMP280;35789;48.414;12.768;2023-04-03T09:15:16;97740.0;;;
68446;BMP280;35789;48.414;12.768;2023-04-03T09:20:14;97740.0;;;
68446;BMP280;35789;48.414;12.768;2023-04-03T09:25:11;97740.0;;;
68446;BMP280;35789;48.414;12.768;2023-04-03T09:30:01;97730.0;;;
68446;BMP280;35789;48.414;12.768;2023-04-03T09:35:04;97730.0;;;
68446;BMP280;35789;48.414;12.768;2023-04-03T09:40:00;97740.0;;;
68446;BMP280;35789;48.414;12.768;2023-04-03T09:45:04;97740.0;;;
68446;BMP280;35789;48.414;12.768;2023-04-03T09:50:20;97750.0;;;
68446;BMP280;35789;48.414;12.768;2023-04-03T09:55:07;97750.0;;;
68446;BMP280;35789;48.414;12.768;2023-04-03T10:00:04;97740.0;;;
68446;BMP280;35789;48.414;12.768;2023-04-03T10:05:01;97750.0;;;
68446;BMP280;35789;48.414;12.768;2023-04-03T10:10:16;97740.0;;;
68446;BMP280;35789;48.414;12.768;2023-04-03T10:15:01;97740.0;;;
68446;BMP280;35789;48.414;12.768;2023-04-03T10:20:14;97740.0;;;
68446;BMP280;35789;48.414;12.768;2023-04-03T10:25:10;97740.0;;;
68446;BMP280;35789;48.414;12.768;2023-04-03T10:30:18;97730.0;;;
68446;BMP280;35789;48.414;12.768;2023-04-03T10:35:11;97730.0;;;
68446;BMP280;35789;48.414;12.768;2023-04-03T10:40:15;97720.0;;;
68446;BMP280;35789;48.414;12.768;2023-04-03T10:45:18;97710.0;;;
68446;BMP280;35789;48.414;12.768;2023-04-03T10:50:22;97700.0;;;
68446;BMP280;35789;48.414;12.768;2023-04-03T10:55:14;97700.0;;;
68446;BMP280;35789;48.414;12.768;2023-04-03T11:00:04;97690.0;;;
68446;BMP280;35789;48.414;12.768;2023-04-03T11:05:05;97680.0;;;
68446;BMP280;35789;48.414;12.768;2023-04-03T11:10:09;97670.0;;;
68446;BMP280;35789;48.414;12.768;2023-04-03T11:15:03;97660.0;;;
68446;BMP280;35789;48.414;12.768;2023-04-03T11:20:10;97670.0;;;
68446;BMP280;35789;48.414;12.768;2023-04-03T11:25:04;97660.0;;;
68446;BMP280;35789;48.414;12.768;2023-04-03T11:30:02;97660.0;;;
68446;BMP280;35789;48.414;12.768;2023-04-03T11:35:05;97680.0;;;
68446;BMP280;35789;48.414;12.768;2023-04-03T11:40:07;97680.0;;;
68446;BMP280;35789;48.414;12.768;2023-04-03T11:45:29;97670.0;;;
68446;BMP280;35789;48.414;12.768;2023-04-03T11:50:03;97660.0;;;
68446;BMP280;35789;48.414;12.768;2023-04-03T11:55:00;97660.0;;;
68446;BMP280;35789;48.414;12.768;2023-04-03T12:05:24;97650.0;;;
68446;BMP280;35789;48.414;12.768;2023-04-03T12:10:00;97660.0;;;
68446;BMP280;35789;48.414;12.768;2023-04-03T12:15:18;97650.0;;;
68446;BMP280;35789;48.414;12.768;2023-04-03T12:20:00;97640.0;;;
68446;BMP280;35789;48.414;12.768;2023-04-03T12:30:14;97640.0;;;
68446;BMP280;35789;48.414;12.768;2023-04-03T12:35:16;97640.0;;;
68446;BMP280;35789;48.414;12.768;2023-04-03T12:40:10;97640.0;;;
68446;BMP280;35789;48.414;12.768;2023-04-03T12:45:13;97640.0;;;
68446;BMP280;35789;48.414;12.768;2023-04-03T12:50:04;97640.0;;;
68446;BMP280;35789;48.414;12.768;2023-04-03T12:55:03;97630.0;;;
68446;BMP280;35789;48.414;12.768;2023-04-03T13:00:20;97630.0;;;
68446;BMP280;35789;48.414;12.768;2023-04-03T13:05:07;97630.0;;;
68446;BMP280;35789;48.414;12.768;2023-04-03T13:10:13;97630.0;;;
68446;BMP280;35789;48.414;12.768;2023-04-03T13:15:12;97630.0;;;
68446;BMP280;35789;48.414;12.768;2023-04-03T13:20:13;97610.0;;;
68446;BMP280;35789;48.414;12.768;2023-04-03T13:25:07;97600.0;;;
68446;BMP280;35789;48.414;12.768;2023-04-03T13:30:04;97600.0;;;
68446;BMP280;35789;48.414;12.768;2023-04-03T13:35:01;97600.0;;;
68446;BMP280;35789;48.414;12.768;2023-04-03T13:40:09;97600.0;;;
68446;BMP280;35789;48.414;12.768;2023-04-03T13:45:18;97600.0;;;
68446;BMP280;35789;48.414;12.768;2023-04-03T13:50:12;97600.0;;;
68446;BMP280;35789;48.414;12.768;2023-04-03T13:55:16;97610.0;;;
68446;BMP280;35789;48.414;12.768;2023-04-03T14:00:22;97600.0;;;
68446;BMP280;35789;48.414;12.768;2023-04-03T14:05:02;97600.0;;;
68446;BMP280;35789;48.414;12.768;2023-04-03T14:10:01;97600.0;;;
68446;BMP280;35789;48.414;12.768;2023-04-03T14:15:03;97600.0;;;
68446;BMP280;35789;48.414;12.768;2023-04-03T14:20:00;97600.0;;;
68446;BMP280;35789;48.414;12.768;2023-04-03T14:25:01;97600.0;;;
68446;BMP280;35789;48.414;12.768;2023-04-03T14:30:02;97620.0;;;
68446;BMP280;35789;48.414;12.768;2023-04-03T14:35:00;97610.0;;;
68446;BMP280;35789;48.414;12.768;2023-04-03T14:40:04;97610.0;;;
68446;BMP280;35789;48.414;12.768;2023-04-03T14:45:09;97610.0;;;
68446;BMP280;35789;48.414;12.768;2023-04-03T14:50:04;97610.0;;;
68446;BMP280;35789;48.414;12.768;2023-04-03T14:55:03;97600.0;;;
68446;BMP280;35789;48.414;12.768;2023-04-03T15:00:01;97620.0;;;
68446;BMP280;35789;48.414;12.768;2023-04-03T15:05:04;97610.0;;;
68446;BMP280;35789;48.414;12.768;2023-04-03T15:10:05;97620.0;;;
68446;BMP280;35789;48.414;12.768;2023-04-03T15:15:00;97620.0;;;
68446;BMP280;35789;48.414;12.768;2023-04-03T15:20:01;97620.0;;;
68446;BMP280;35789;48.414;12.768;2023-04-03T15:25:00;97630.0;;;
68446;BMP280;35789;48.414;12.768;2023-04-03T15:30:01;97640.0;;;
68446;BMP280;35789;48.414;12.768;2023-04-03T15:35:00;97640.0;;;
68446;BMP280;35789;48.414;12.768;2023-04-03T15:40:01;97640.0;;;
68446;BMP280;35789;48.414;12.768;2023-04-03T15:45:01;97650.0;;;
68446;BMP280;35789;48.414;12.768;2023-04-03T15:50:01;97660.0;;;
68446;BMP280;35789;48.414;12.768;2023-04-03T15:55:01;97650.0;;;
68446;BMP280;35789;48.414;12.768;2023-04-03T16:00:00;97660.0;;;
68446;BMP280;35789;48.414;12.768;2023-04-03T16:05:01;97660.0;;;
68446;BMP280;35789;48.414;12.768;2023-04-03T16:10:00;97660.0;;;
68446;BMP280;35789;48.414;12.768;2023-04-03T16:15:00;97660.0;;;
68446;BMP280;35789;48.414;12.768;2023-04-03T16:20:01;97660.0;;;
68446;BMP280;35789;48.414;12.768;2023-04-03T16:25:01;97670.0;;;
68446;BMP280;35789;48.414;12.768;2023-04-03T16:30:01;97670.0;;;
68446;BMP280;35789;48.414;12.768;2023-04-03T16:35:01;97670.0;;;
68446;BMP280;35789;48.414;12.768;2023-04-03T16:40:00;97680.0;;;
68446;BMP280;35789;48.414;12.768;2023-04-03T16:45:00;97680.0;;;
68446;BMP280;35789;48.414;12.768;2023-04-03T16:50:00;97680.0;;;
68446;BMP280;35789;48.414;12.768;2023-04-03T16:55:00;97700.0;;;
68446;BMP280;35789;48.414;12.768;2023-04-03T17:00:00;97690.0;;;
68446;BMP280;35789;48.414;12.768;2023-04-03T17:05:00;97700.0;;;
68446;BMP280;35789;48.414;12.768;2023-04-03T17:10:01;97690.0;;;
68446;BMP280;35789;48.414;12.768;2023-04-03T17:15:00;97700.0;;;
68446;BMP280;35789;48.414;12.768;2023-04-03T17:20:01;97700.0;;;
68446;BMP280;35789;48.414;12.768;2023-04-03T17:25:00;97710.0;;;
68446;BMP280;35789;48.414;12.768;2023-04-03T17:30:01;97710.0;;;
68446;BMP280;35789;48.414;12.768;2023-04-03T17:35:00;97710.0;;;
68446;BMP280;35789;48.414;12.768;2023-04-03T17:40:00;97710.0;;;
68446;BMP280;35789;48.414;12.768;2023-04-03T17:45:00;97720.0;;;
68446;BMP280;35789;48.414;12.768;2023-04-03T17:50:00;97710.0;;;
68446;BMP280;35789;48.414;12.768;2023-04-03T17:55:00;97720.0;;;
68446;BMP280;35789;48.414;12.768;2023-04-03T18:00:00;97720.0;;;
68446;BMP280;35789;48.414;12.768;2023-04-03T18:05:01;97730.0;;;
68446;BMP280;35789;48.414;12.768;2023-04-03T18:10:01;97730.0;;;
68446;BMP280;35789;48.414;12.768;2023-04-03T18:15:02;97740.0;;;
68446;BMP280;35789;48.414;12.768;2023-04-03T18:20:00;97740.0;;;
68446;BMP280;35789;48.414;12.768;2023-04-03T18:25:00;97740.0;;;
68446;BMP280;35789;48.414;12.768;2023-04-03T18:30:09;97740.0;;;
68446;BMP280;35789;48.414;12.768;2023-04-03T18:35:00;97750.0;;;
68446;BMP280;35789;48.414;12.768;2023-04-03T18:40:01;97750.0;;;
68446;BMP280;35789;48.414;12.768;2023-04-03T18:45:05;97760.0;;;
68446;BMP280;35789;48.414;12.768;2023-04-03T18:50:01;97760.0;;;
68446;BMP280;35789;48.414;12.768;2023-04-03T18:55:00;97760.0;;;
68446;BMP280;35789;48.414;12.768;2023-04-03T19:00:00;97760.0;;;
68446;BMP280;35789;48.414;12.768;2023-04-03T19:05:00;97770.0;;;
68446;BMP280;35789;48.414;12.768;2023-04-03T19:10:01;97780.0;;;
68446;BMP280;35789;48.414;12.768;2023-04-03T19:15:00;97780.0;;;
68446;BMP280;35789;48.414;12.768;2023-04-03T19:20:00;97770.0;;;
68446;BMP280;35789;48.414;12.768;2023-04-03T19:25:01;97780.0;;;
68446;BMP280;35789;48.414;12.768;2023-04-03T19:30:01;97780.0;;;
68446;BMP280;35789;48.414;12.768;2023-04-03T19:35:00;97780.0;;;
68446;BMP280;35789;48.414;12.768;2023-04-03T19:40:00;97780.0;;;
68446;BMP280;35789;48.414;12.768;2023-04-03T19:45:01;97780.0;;;
68446;BMP280;35789;48.414;12.768;2023-04-03T19:50:01;97780.0;;;
68446;BMP280;35789;48.414;12.768;2023-04-03T19:55:00;97780.0;;;
68446;BMP280;35789;48.414;12.768;2023-04-03T20:00:01;97790.0;;;
68446;BMP280;35789;48.414;12.768;2023-04-03T20:05:00;97790.0;;;
68446;BMP280;35789;48.414;12.768;2023-04-03T20:10:00;97790.0;;;
68446;BMP280;35789;48.414;12.768;2023-04-03T20:15:00;97790.0;;;
68446;BMP280;35789;48.414;12.768;2023-04-03T20:20:03;97790.0;;;
68446;BMP280;35789;48.414;12.768;2023-04-03T20:25:01;97790.0;;;
68446;BMP280;35789;48.414;12.768;2023-04-03T20:30:01;97790.0;;;
68446;BMP280;35789;48.414;12.768;2023-04-03T20:35:00;97800.0;;;
68446;BMP280;35789;48.414;12.768;2023-04-03T20:40:00;97800.0;;;
68446;BMP280;35789;48.414;12.768;2023-04-03T20:45:00;97800.0;;;
68446;BMP280;35789;48.414;12.768;2023-04-03T20:50:00;97800.0;;;
68446;BMP280;35789;48.414;12.768;2023-04-03T20:55:00;97800.0;;;
68446;BMP280;35789;48.414;12.768;2023-04-03T21:00:00;97800.0;;;
68446;BMP280;35789;48.414;12.768;2023-04-03T21:05:01;97800.0;;;
68446;BMP280;35789;48.414;12.768;2023-04-03T21:20:01;97800.0;;;
68446;BMP280;35789;48.414;12.768;2023-04-03T21:25:01;97800.0;;;
68446;BMP280;35789;48.414;12.768;2023-04-03T21:30:01;97790.0;;;
68446;BMP280;35789;48.414;12.768;2023-04-03T21:35:00;97800.0;;;
68446;BMP280;35789;48.414;12.768;2023-04-03T21:40:00;97790.0;;;
68446;BMP280;35789;48.414;12.768;2023-04-03T21:45:00;97790.0;;;
68446;BMP280;35789;48.414;12.768;2023-04-03T21:50:00;97790.0;;;
68446;BMP280;35789;48.414;12.768;2023-04-03T21:55:00;97790.0;;;
68446;BMP280;35789;48.414;12.768;2023-04-03T22:00:01;97780.0;;;
68446;BMP280;35789;48.414;12.768;2023-04-03T22:05:00;97790.0;;;
68446;BMP280;35789;48.414;12.768;2023-04-03T22:10:00;97790.0;;;
68446;BMP280;35789;48.414;12.768;2023-04-03T22:15:01;97790.0;;;
68446;BMP280;35789;48.414;12.768;2023-04-03T22:20:00;97790.0;;;
68446;BMP280;35789;48.414;12.768;2023-04-03T22:25:00;97790.0;;;
68446;BMP280;35789;48.414;12.768;2023-04-03T22:30:00;97780.0;;;
68446;BMP280;35789;48.414;12.768;2023-04-03T22:35:00;97780.0;;;
68446;BMP280;35789;48.414;12.768;2023-04-03T22:40:00;97780.0;;;
68446;BMP280;35789;48.414;12.768;2023-04-03T22:45:00;97780.0;;;
68446;BMP280;35789;48.414;12.768;2023-04-03T22:50:00;97770.0;;;
68446;BMP280;35789;48.414;12.768;2023-04-03T22:55:00;97780.0;;;
68446;BMP280;35789;48.414;12.768;2023-04-03T23:00:00;97780.0;;;
68446;BMP280;35789;48.414;12.768;2023-04-03T23:05:00;97780.0;;;
68446;BMP280;35789;48.414;12.768;2023-04-03T23:10:00;97780.0;;;
68446;BMP280;35789;48.414;12.768;2023-04-03T23:15:00;97780.0;;;
68446;BMP280;35789;48.414;12.768;2023-04-03T23:20:00;97780.0;;;
68446;BMP280;35789;48.414;12.768;2023-04-03T23:25:00;97780.0;;;
68446;BMP280;35789;48.414;12.768;2023-04-03T23:30:00;97780.0;;;
68446;BMP280;35789;48.414;12.768;2023-04-03T23:35:00;97780.0;;;
68446;BMP280;35789;48.414;12.768;2023-04-03T23:40:00;97780.0;;;
68446;BMP280;35789;48.414;12.768;2023-04-03T23:45:00;97780.0;;;
68446;BMP280;35789;48.414;12.768;2023-04-03T23:50:00;97780.0;;;
68446;BMP280;35789;48.414;12.768;2023-04-03T23:55:00;97770.0;;;
